KSVE/SVE METAR and TAF weather

Enter ICAO airport designator
Station Type Date Time Source
KSVE METAR 2020/09/18 16:35 UTC NOAA

KSVE 181635Z AUTO 06004KT 10SM FEW050 FEW060 20/07 A3003 RMK AO2


Station Type Date Time Source
KSVE Decoded METAR 2020/09/18 16:35 UTC NOAA

Susanville Municipal, CA, United States (KSVE) 40-23N 120-34W
Sep 18, 2020 - 12:35 PM EDT / 2020.09.18 1635 UTC
Wind: from the ENE (060 degrees) at 5 MPH (4 KT):0
Visibility: 10 mile(s):0
Sky conditions: mostly clear
Temperature: 68 F (20 C)
Dew Point: 44 F (7 C)
Relative Humidity: 42%
Pressure (altimeter): 30.03 in. Hg (1016 hPa)
ob: KSVE 181635Z AUTO 06004KT 10SM FEW050 FEW060 20/07 A3003 RMK AO2
cycle: 16

Station Type Date Time Source
KSVE TAF UTC NOAA

Error!

Example: see airport list